Time,TemperatureF,DewpointF,PressureIn,WindDirection,WindDirectionDegrees,WindSpeedMPH,WindSpeedGustMPH,Humidity,HourlyPrecipIn,Conditions,Clouds,dailyrainin,SoftwareType,DateUTC
2013-05-27 00:00:00,55.4,49.7,29.99,North,0,0.0,-999.0,81,-99.99,,,0.00,Acu-Link.com,2013-05-27 04:00:00,
2013-05-27 00:16:00,55.4,50.0,29.99,North,0,0.0,-999.0,82,-99.99,,,0.00,Acu-Link.com,2013-05-27 04:16:00,
2013-05-27 00:31:00,55.4,50.0,30.00,North,0,0.0,-999.0,82,-99.99,,,0.00,Acu-Link.com,2013-05-27 04:31:00,
2013-05-27 00:46:00,55.4,50.3,30.00,North,0,0.0,-999.0,83,-99.99,,,0.00,Acu-Link.com,2013-05-27 04:46:00,
2013-05-27 01:01:00,55.4,50.3,30.00,North,0,0.0,-999.0,83,-99.99,,,0.00,Acu-Link.com,2013-05-27 05:01:00,
2013-05-27 01:16:00,55.4,51.0,30.00,North,0,0.0,-999.0,85,-99.99,,,0.00,Acu-Link.com,2013-05-27 05:16:00,
2013-05-27 01:32:00,55.4,51.3,30.00,North,0,0.0,-999.0,86,-99.99,,,0.00,Acu-Link.com,2013-05-27 05:32:00,
2013-05-27 01:47:00,55.4,51.6,30.00,North,0,0.0,-999.0,87,-99.99,,,0.00,Acu-Link.com,2013-05-27 05:47:00,
2013-05-27 02:02:00,55.4,51.6,30.00,North,0,0.0,-999.0,87,-99.99,,,0.00,Acu-Link.com,2013-05-27 06:02:00,
2013-05-27 02:18:00,55.4,52.5,30.00,North,0,0.0,-999.0,90,-99.99,,,0.00,Acu-Link.com,2013-05-27 06:18:00,
2013-05-27 02:33:00,55.4,52.5,29.99,North,0,0.0,-999.0,90,-99.99,,,0.00,Acu-Link.com,2013-05-27 06:33:00,
2013-05-27 02:48:00,55.4,52.2,30.00,North,0,0.0,-999.0,89,-99.99,,,0.00,Acu-Link.com,2013-05-27 06:48:00,
2013-05-27 03:03:00,53.6,50.1,30.00,North,0,0.0,-999.0,88,-99.99,,,0.00,Acu-Link.com,2013-05-27 07:03:00,
2013-05-27 03:18:00,55.4,52.2,29.99,NNE,22,0.0,-999.0,89,-99.99,,,0.00,Acu-Link.com,2013-05-27 07:18:00,
2013-05-27 03:33:00,55.4,52.5,30.00,NNE,22,0.0,-999.0,90,-99.99,,,0.00,Acu-Link.com,2013-05-27 07:33:00,
2013-05-27 03:49:00,55.4,52.5,29.99,NNE,22,0.0,-999.0,90,-99.99,,,0.00,Acu-Link.com,2013-05-27 07:49:00,
2013-05-27 04:04:00,55.4,52.8,29.99,NNE,22,0.0,-999.0,91,-99.99,,,0.00,Acu-Link.com,2013-05-27 08:04:00,
2013-05-27 04:19:00,55.4,52.8,29.99,NNE,22,0.0,-999.0,91,-99.99,,,0.00,Acu-Link.com,2013-05-27 08:19:00,
2013-05-27 04:35:00,53.6,50.7,29.99,NNE,22,0.0,-999.0,90,-99.99,,,0.00,Acu-Link.com,2013-05-27 08:35:00,
2013-05-27 04:50:00,53.6,50.7,30.00,NNE,22,0.0,-999.0,90,-99.99,,,0.00,Acu-Link.com,2013-05-27 08:50:00,
2013-05-27 05:05:00,53.6,51.0,30.00,NNE,22,0.0,-999.0,91,-99.99,,,0.00,Acu-Link.com,2013-05-27 09:05:00,
2013-05-27 05:20:00,53.6,51.0,30.00,NNE,22,0.0,-999.0,91,-99.99,,,0.00,Acu-Link.com,2013-05-27 09:20:00,
2013-05-27 05:35:00,53.6,51.0,30.01,NNE,22,0.0,-999.0,91,-99.99,,,0.00,Acu-Link.com,2013-05-27 09:35:00,
2013-05-27 05:50:00,53.6,51.6,30.02,NE,45,0.0,-999.0,93,-99.99,,,0.00,Acu-Link.com,2013-05-27 09:50:00,
2013-05-27 06:05:00,53.6,51.9,30.02,NE,45,0.0,-999.0,94,-99.99,,,0.00,Acu-Link.com,2013-05-27 10:05:00,
2013-05-27 06:21:00,51.8,50.1,30.02,NE,45,0.0,-999.0,94,-99.99,,,0.00,Acu-Link.com,2013-05-27 10:21:00,
2013-05-27 06:36:00,51.8,50.1,30.03,NE,45,0.0,-999.0,94,-99.99,,,0.00,Acu-Link.com,2013-05-27 10:36:00,
2013-05-27 06:51:00,53.6,51.9,30.04,NE,45,0.0,-999.0,94,-99.99,,,0.00,Acu-Link.com,2013-05-27 10:51:00,
2013-05-27 07:06:00,53.6,51.9,30.05,NE,45,0.0,-999.0,94,-99.99,,,0.00,Acu-Link.com,2013-05-27 11:06:00,
2013-05-27 07:22:00,53.6,51.9,30.05,NE,45,0.0,-999.0,94,-99.99,,,0.00,Acu-Link.com,2013-05-27 11:22:00,
2013-05-27 07:37:00,55.4,52.8,30.05,NE,45,0.0,-999.0,91,-99.99,,,0.00,Acu-Link.com,2013-05-27 11:37:00,
2013-05-27 07:52:00,57.2,54.0,30.05,NE,45,0.0,-999.0,89,-99.99,,,0.00,Acu-Link.com,2013-05-27 11:52:00,
2013-05-27 08:08:00,60.8,56.3,30.05,NE,45,1.1,-999.0,85,-99.99,,,0.00,Acu-Link.com,2013-05-27 12:08:00,
2013-05-27 08:23:00,68.0,60.1,30.05,NE,45,0.0,-999.0,76,-99.99,,,0.00,Acu-Link.com,2013-05-27 12:23:00,
2013-05-27 08:38:00,71.6,60.0,30.06,SSW,202,1.6,-999.0,67,-99.99,,,0.00,Acu-Link.com,2013-05-27 12:38:00,
2013-05-27 08:53:00,71.6,57.9,30.06,WSW,247,0.0,-999.0,62,-99.99,,,0.00,Acu-Link.com,2013-05-27 12:53:00,
2013-05-27 09:09:00,73.4,58.2,30.06,South,180,3.1,-999.0,59,-99.99,,,0.00,Acu-Link.com,2013-05-27 13:09:00,
2013-05-27 09:24:00,77.0,57.5,30.06,South,180,5.1,-999.0,51,-99.99,,,0.00,Acu-Link.com,2013-05-27 13:24:00,
2013-05-27 09:39:00,75.2,57.4,30.06,South,180,3.6,-999.0,54,-99.99,,,0.00,Acu-Link.com,2013-05-27 13:39:00,
2013-05-27 09:54:00,77.0,56.9,30.06,SSE,157,3.6,-999.0,50,-99.99,,,0.00,Acu-Link.com,2013-05-27 13:54:00,
2013-05-27 10:10:00,80.6,58.5,30.06,SSE,157,2.7,-999.0,47,-99.99,,,0.00,Acu-Link.com,2013-05-27 14:10:00,
2013-05-27 10:25:00,75.2,56.3,30.05,South,180,3.1,-999.0,52,-99.99,,,0.00,Acu-Link.com,2013-05-27 14:25:00,
2013-05-27 10:40:00,78.8,58.6,30.04,SSE,157,4.7,-999.0,50,-99.99,,,0.00,Acu-Link.com,2013-05-27 14:40:00,
2013-05-27 10:55:00,84.2,59.9,30.04,SSE,157,2.7,-999.0,44,-99.99,,,0.00,Acu-Link.com,2013-05-27 14:55:00,
2013-05-27 11:10:00,78.8,57.4,30.04,SW,225,2.7,-999.0,48,-99.99,,,0.00,Acu-Link.com,2013-05-27 15:10:00,
2013-05-27 11:25:00,78.8,56.2,30.04,South,180,4.0,-999.0,46,-99.99,,,0.00,Acu-Link.com,2013-05-27 15:25:00,
2013-05-27 11:41:00,80.6,57.3,30.03,SW,225,3.1,-999.0,45,-99.99,,,0.00,Acu-Link.com,2013-05-27 15:41:00,
2013-05-27 11:56:00,80.6,57.3,30.03,ESE,112,3.6,-999.0,45,-99.99,,,0.00,Acu-Link.com,2013-05-27 15:56:00,
2013-05-27 12:11:00,82.4,58.3,30.03,SE,135,3.6,-999.0,44,-99.99,,,0.00,Acu-Link.com,2013-05-27 16:11:00,
2013-05-27 12:26:00,86.0,58.8,30.03,West,270,4.7,-999.0,40,-99.99,,,0.00,Acu-Link.com,2013-05-27 16:26:00,
2013-05-27 12:42:00,86.0,59.5,30.02,SSW,202,2.7,-999.0,41,-99.99,,,0.00,Acu-Link.com,2013-05-27 16:42:00,
2013-05-27 12:57:00,82.4,55.6,30.03,SSE,157,4.0,-999.0,40,-99.99,,,0.00,Acu-Link.com,2013-05-27 16:57:00,
2013-05-27 13:12:00,87.8,59.7,30.02,SSE,157,4.0,-999.0,39,-99.99,,,0.00,Acu-Link.com,2013-05-27 17:12:00,
2013-05-27 13:28:00,86.0,61.5,30.02,West,270,3.1,-999.0,44,-99.99,,,0.00,Acu-Link.com,2013-05-27 17:28:00,
2013-05-27 13:43:00,84.2,57.2,30.01,West,270,4.0,-999.0,40,-99.99,,,0.00,Acu-Link.com,2013-05-27 17:43:00,
2013-05-27 13:58:00,89.6,59.1,30.01,South,180,1.6,-999.0,36,-99.99,,,0.00,Acu-Link.com,2013-05-27 17:58:00,
2013-05-27 14:13:00,87.8,57.5,30.01,South,180,4.7,-999.0,36,-99.99,,,0.00,Acu-Link.com,2013-05-27 18:13:00,
2013-05-27 14:29:00,89.6,59.8,30.00,SSW,202,1.6,-999.0,37,-99.99,,,0.00,Acu-Link.com,2013-05-27 18:29:00,
2013-05-27 14:44:00,89.6,58.3,30.00,South,180,5.1,-999.0,35,-99.99,,,0.00,Acu-Link.com,2013-05-27 18:44:00,
2013-05-27 14:59:00,89.6,59.1,29.99,South,180,2.7,-999.0,36,-99.99,,,0.00,Acu-Link.com,2013-05-27 18:59:00,
2013-05-27 15:14:00,93.2,60.6,29.98,ENE,67,2.0,-999.0,34,-99.99,,,0.00,Acu-Link.com,2013-05-27 19:14:00,
2013-05-27 15:30:00,87.8,58.2,29.98,SSE,157,3.1,-999.0,37,-99.99,,,0.00,Acu-Link.com,2013-05-27 19:30:00,
2013-05-27 15:45:00,91.4,59.9,29.97,WNW,292,1.6,-999.0,35,-99.99,,,0.00,Acu-Link.com,2013-05-27 19:45:00,
2013-05-27 16:00:00,86.0,56.7,29.95,South,180,4.0,-999.0,37,-99.99,,,0.00,Acu-Link.com,2013-05-27 20:00:00,
2013-05-27 16:15:00,86.0,58.1,29.95,South,180,2.7,-999.0,39,-99.99,,,0.00,Acu-Link.com,2013-05-27 20:15:00,
2013-05-27 16:30:00,87.8,59.7,29.95,South,180,2.0,-999.0,39,-99.99,,,0.00,Acu-Link.com,2013-05-27 20:30:00,
2013-05-27 16:46:00,91.4,59.9,29.94,West,270,2.0,-999.0,35,-99.99,,,0.00,Acu-Link.com,2013-05-27 20:46:00,
2013-05-27 17:01:00,93.2,60.6,29.94,SSW,202,2.7,-999.0,34,-99.99,,,0.00,Acu-Link.com,2013-05-27 21:01:00,
2013-05-27 17:16:00,89.6,58.3,29.94,South,180,2.0,-999.0,35,-99.99,,,0.00,Acu-Link.com,2013-05-27 21:16:00,
2013-05-27 17:31:00,86.0,58.8,29.94,NW,315,1.1,-999.0,40,-99.99,,,0.00,Acu-Link.com,2013-05-27 21:31:00,
2013-05-27 17:46:00,84.2,59.2,29.94,ENE,67,1.6,-999.0,43,-99.99,,,0.00,Acu-Link.com,2013-05-27 21:46:00,
2013-05-27 18:01:00,80.6,58.5,29.94,NE,45,1.6,-999.0,47,-99.99,,,0.00,Acu-Link.com,2013-05-27 22:01:00,
2013-05-27 18:17:00,80.6,59.6,29.94,South,180,1.1,-999.0,49,-99.99,,,0.00,Acu-Link.com,2013-05-27 22:17:00,
2013-05-27 18:32:00,78.8,58.0,29.94,WSW,247,1.6,-999.0,49,-99.99,,,0.00,Acu-Link.com,2013-05-27 22:32:00,
2013-05-27 18:47:00,78.8,57.4,29.93,NNE,22,0.0,-999.0,48,-99.99,,,0.00,Acu-Link.com,2013-05-27 22:47:00,
2013-05-27 19:02:00,78.8,58.0,29.93,ESE,112,1.1,-999.0,49,-99.99,,,0.00,Acu-Link.com,2013-05-27 23:02:00,
2013-05-27 19:18:00,77.0,57.5,29.94,NE,45,0.0,-999.0,51,-99.99,,,0.00,Acu-Link.com,2013-05-27 23:18:00,
2013-05-27 19:33:00,77.0,58.5,29.94,NE,45,1.6,-999.0,53,-99.99,,,0.00,Acu-Link.com,2013-05-27 23:33:00,
2013-05-27 19:48:00,77.0,60.1,29.94,NE,45,0.0,-999.0,56,-99.99,,,0.00,Acu-Link.com,2013-05-27 23:48:00,
2013-05-27 20:03:00,73.4,57.7,29.94,NE,45,1.1,-999.0,58,-99.99,,,0.00,Acu-Link.com,2013-05-28 00:03:00,
2013-05-27 20:19:00,73.4,59.1,29.94,NE,45,0.0,-999.0,61,-99.99,,,0.00,Acu-Link.com,2013-05-28 00:19:00,
2013-05-27 20:34:00,71.6,57.9,29.94,NE,45,0.0,-999.0,62,-99.99,,,0.00,Acu-Link.com,2013-05-28 00:34:00,
2013-05-27 20:49:00,71.6,58.3,29.93,NE,45,0.0,-999.0,63,-99.99,,,0.00,Acu-Link.com,2013-05-28 00:49:00,
2013-05-27 21:04:00,69.8,57.1,29.93,NE,45,0.0,-999.0,64,-99.99,,,0.00,Acu-Link.com,2013-05-28 01:04:00,
2013-05-27 21:20:00,69.8,57.1,29.93,NE,45,0.0,-999.0,64,-99.99,,,0.00,Acu-Link.com,2013-05-28 01:20:00,
2013-05-27 21:35:00,69.8,57.5,29.93,WNW,292,0.0,-999.0,65,-99.99,,,0.00,Acu-Link.com,2013-05-28 01:35:00,
2013-05-27 21:50:00,69.8,57.5,29.93,WNW,292,0.0,-999.0,65,-99.99,,,0.00,Acu-Link.com,2013-05-28 01:50:00,
2013-05-27 22:05:00,69.8,57.9,29.94,WNW,292,0.0,-999.0,66,-99.99,,,0.00,Acu-Link.com,2013-05-28 02:05:00,
2013-05-27 22:20:00,68.0,56.6,29.95,WNW,292,0.0,-999.0,67,-99.99,,,0.00,Acu-Link.com,2013-05-28 02:20:00,
2013-05-27 22:36:00,68.0,57.0,29.96,WNW,292,0.0,-999.0,68,-99.99,,,0.00,Acu-Link.com,2013-05-28 02:36:00,
2013-05-27 22:51:00,68.0,58.2,29.96,WNW,292,0.0,-999.0,71,-99.99,,,0.00,Acu-Link.com,2013-05-28 02:51:00,
2013-05-27 23:06:00,66.2,56.9,29.97,WNW,292,0.0,-999.0,72,-99.99,,,0.00,Acu-Link.com,2013-05-28 03:06:00,
2013-05-27 23:21:00,64.4,55.6,29.97,WNW,292,0.0,-999.0,73,-99.99,,,0.00,Acu-Link.com,2013-05-28 03:21:00,
2013-05-27 23:36:00,64.4,56.3,29.97,WNW,292,0.0,-999.0,75,-99.99,,,0.00,Acu-Link.com,2013-05-28 03:36:00,
2013-05-27 23:52:00,64.4,57.0,29.97,WNW,292,0.0,-999.0,77,-99.99,,,0.00,Acu-Link.com,2013-05-28 03:52:00,